»·PEaware :: QXE1014 KSEA-KRDM

QXE1014 :: KSEA-KRDM

FLIGHT INFORMATION

Flight Status: Arrived
Operator:
Horizon Air
More flights by this operator :: More flights under this callsign
Pilot: Jim M. (18055)
Aircraft: DEHAVILLAND DASH 8 400
(DH8D)
More flights by this aircraft type
Origin: KSEA Seattle-Tacoma Intl
United States
Destination: KRDM Roberts
United States
More flights between these airports :: More routes between these airports
Route: SUMMA1 SUMMA DSD
File this flight plan on PilotEdge
Remarks:
Altitude:
(Current/Filed)
21,000ft
Speed:
(Current/Filed)
350kts
Departed: 05-Jun-19 04:28 PM
Arrived: 05-Jun-19 05:27 PM
Distance/Time
Traveled:
198nm/0:59
Distance/Time
To Go:
Arrived

Flight Plot

Page will automatically refresh every two minutes.

Flight plan parsing failed; only flown route is shown


Map Options




Map Legend


Flown Route
Filed Route
Departure Airport
Arrival Airport
Navaid (VOR, NDB)
Fix

Horizontal Profiles

Position Reports

Time Latitude Longitude Heading Altitude Ground
Speed
05-Jun-19 15:51 47.441612 -122.304581 90 440ft 0kts
05-Jun-19 15:52 47.441612 -122.304581 90 440ft 0kts
05-Jun-19 15:53 47.441612 -122.304581 90 440ft 0kts
05-Jun-19 15:54 47.441612 -122.304581 90 440ft 0kts
05-Jun-19 15:55 47.441612 -122.304581 90 440ft 0kts
05-Jun-19 15:56 47.441612 -122.304581 90 440ft 0kts
05-Jun-19 15:57 47.441612 -122.304581 90 440ft 0kts
05-Jun-19 15:58 47.441612 -122.304581 90 440ft 0kts
05-Jun-19 15:59 47.441612 -122.304581 90 440ft 0kts
05-Jun-19 16:00 47.441612 -122.304581 90 440ft 0kts
05-Jun-19 16:01 47.441612 -122.304581 90 440ft 0kts
05-Jun-19 16:02 47.441612 -122.304581 90 440ft 0kts
05-Jun-19 16:03 47.441612 -122.304581 90 440ft 0kts
05-Jun-19 16:04 47.441612 -122.304581 90 440ft 0kts
05-Jun-19 16:05 47.441612 -122.304581 90 440ft 0kts
05-Jun-19 16:06 47.441612 -122.304581 90 440ft 0kts
05-Jun-19 16:07 47.441612 -122.304581 90 440ft 0kts
05-Jun-19 16:08 47.441612 -122.304581 90 440ft 0kts
05-Jun-19 16:09 47.441612 -122.304581 90 440ft 0kts
05-Jun-19 16:10 47.441612 -122.304581 90 440ft 0kts
05-Jun-19 16:11 47.441612 -122.304581 90 440ft 0kts
05-Jun-19 16:12 47.441612 -122.304581 90 440ft 0kts
05-Jun-19 16:13 47.441477 -122.305351 35 440ft 2kts
05-Jun-19 16:14 47.441259 -122.305421 0 440ft 0kts
05-Jun-19 16:15 47.441259 -122.305421 0 440ft 0kts
05-Jun-19 16:16 47.441259 -122.305421 0 440ft 0kts
05-Jun-19 16:17 47.441256 -122.305421 0 440ft 0kts
05-Jun-19 16:18 47.441256 -122.305421 0 440ft 0kts
05-Jun-19 16:19 47.441590 -122.305858 310 440ft 10kts
05-Jun-19 16:20 47.445598 -122.306321 0 440ft 10kts
05-Jun-19 16:21 47.450710 -122.306309 1 440ft 15kts
05-Jun-19 16:22 47.455873 -122.306225 0 440ft 11kts
05-Jun-19 16:23 47.460043 -122.306191 359 440ft 19kts
05-Jun-19 16:24 47.462344 -122.306186 1 440ft 7kts
05-Jun-19 16:25 47.463381 -122.306187 345 440ft 5kts
05-Jun-19 16:27 47.463078 -122.307785 176 440ft 8kts
05-Jun-19 16:28 47.432838 -122.306180 175 1349ft 156kts
05-Jun-19 16:29 47.382594 -122.313674 183 3266ft 201kts
05-Jun-19 16:30 47.327094 -122.314362 178 6037ft 204kts
05-Jun-19 16:31 47.271101 -122.310536 178 8719ft 214kts
05-Jun-19 16:32 47.216317 -122.283056 145 11096ft 234kts
05-Jun-19 16:33 47.162051 -122.240974 169 12963ft 228kts
05-Jun-19 16:34 47.102564 -122.212897 170 14685ft 231kts
05-Jun-19 16:35 47.042652 -122.184955 171 16254ft 236kts
05-Jun-19 16:36 46.981565 -122.156558 171 17672ft 238kts
05-Jun-19 16:37 46.919413 -122.127440 172 18962ft 242kts
05-Jun-19 16:38 46.855934 -122.098171 173 19972ft 247kts
05-Jun-19 16:39 46.791032 -122.068072 173 20915ft 251kts
05-Jun-19 16:40 46.722205 -122.036707 172 21072ft 277kts
05-Jun-19 16:41 46.648588 -122.002746 172 21076ft 297kts
05-Jun-19 16:42 46.570698 -121.973524 177 21076ft 302kts
05-Jun-19 16:43 46.490515 -121.950291 177 21075ft 309kts
05-Jun-19 16:44 46.409496 -121.926125 177 21070ft 313kts
05-Jun-19 16:45 46.327156 -121.901419 177 21067ft 315kts
05-Jun-19 16:45 46.258051 -121.880759 177 21066ft 315kts
05-Jun-19 16:47 46.161392 -121.851959 177 21064ft 316kts
05-Jun-19 16:48 46.078770 -121.827420 177 21072ft 316kts
05-Jun-19 16:48 46.010312 -121.807153 177 21071ft 316kts
05-Jun-19 16:50 45.913926 -121.778703 177 21059ft 317kts
05-Jun-19 16:50 45.844703 -121.758326 177 21055ft 317kts
05-Jun-19 16:51 45.760490 -121.733610 177 21052ft 317kts
05-Jun-19 16:53 45.661889 -121.704771 177 21049ft 317kts
05-Jun-19 16:53 45.591581 -121.684198 177 21049ft 317kts
05-Jun-19 16:54 45.507283 -121.659769 177 21050ft 317kts
05-Jun-19 16:55 45.423035 -121.635356 177 21049ft 318kts
05-Jun-19 16:56 45.339447 -121.611191 177 21050ft 318kts
05-Jun-19 16:57 45.255481 -121.586965 177 21050ft 317kts
05-Jun-19 16:58 45.172448 -121.563078 177 21046ft 318kts
05-Jun-19 16:59 45.089113 -121.539368 177 21045ft 318kts
05-Jun-19 17:00 45.005901 -121.515476 177 21043ft 318kts
05-Jun-19 17:01 44.922809 -121.491830 177 21041ft 318kts
05-Jun-19 17:02 44.840372 -121.468481 177 20236ft 315kts
05-Jun-19 17:03 44.760280 -121.445766 177 18978ft 305kts
05-Jun-19 17:04 44.681513 -121.423726 177 17359ft 303kts
05-Jun-19 17:05 44.603445 -121.401884 176 15755ft 304kts
05-Jun-19 17:06 44.524878 -121.379718 176 14356ft 298kts
05-Jun-19 17:07 44.449310 -121.358385 176 13209ft 281kts
05-Jun-19 17:08 44.379023 -121.338626 176 12796ft 265kts
05-Jun-19 17:09 44.312008 -121.320036 175 12988ft 263kts
05-Jun-19 17:10 44.248181 -121.272614 132 12918ft 311kts
05-Jun-19 17:11 44.212139 -121.166968 118 11934ft 298kts
05-Jun-19 17:12 44.185549 -121.073274 118 10979ft 258kts
05-Jun-19 17:13 44.158787 -120.983777 115 9559ft 265kts
05-Jun-19 17:14 44.132198 -120.892838 113 8292ft 258kts
05-Jun-19 17:15 44.115945 -120.805462 95 7643ft 237kts
05-Jun-19 17:16 44.087935 -120.736094 151 7588ft 214kts
05-Jun-19 17:17 44.053647 -120.764596 284 7602ft 183kts
05-Jun-19 17:18 44.093308 -120.801979 319 7602ft 184kts
05-Jun-19 17:19 44.121647 -120.854515 292 7594ft 175kts
05-Jun-19 17:20 44.147126 -120.913389 301 6987ft 198kts
05-Jun-19 17:21 44.175008 -120.973791 301 5996ft 174kts
05-Jun-19 17:22 44.193807 -121.021065 301 4926ft 136kts
05-Jun-19 17:23 44.212977 -121.060809 302 4184ft 125kts
05-Jun-19 17:24 44.230509 -121.098645 305 3762ft 118kts
05-Jun-19 17:25 44.247778 -121.136287 305 3141ft 120kts
05-Jun-19 17:26 44.254606 -121.152241 259 3084ft 2kts
05-Jun-19 17:27 44.252862 -121.156268 239 3084ft 18kts
05-Jun-19 17:28 44.252326 -121.159654 311 3084ft 6kts
05-Jun-19 17:29 44.252390 -121.161236 324 3084ft 0kts
05-Jun-19 17:30 44.252390 -121.161236 324 3084ft 0kts
05-Jun-19 17:31 44.252390 -121.161236 324 3084ft 0kts

Navigation Log

Ident Type
Flight plan parsing failed, navigation log unavailable